Time;durP1;ratioP1;P1;durP2;ratioP2;P2;SDS_P1;SDS_P2;PMS_P1;PMS_P2;Temp;Humidity;BMP_temperature;BMP_pressure;BME280_temperature;BME280_humidity;BME280_pressure;Samples;Min_cycle;Max_cycle;Signal;HPM_P1;HPM_P2
2021/06/08 00:01:12;;;;;;;13.13;9.85;;;16.30;99.90;;;;;;5073943;28;20040;-82
2021/06/08 00:03:39;;;;;;;16.70;10.25;;;16.20;99.90;;;;;;5072740;28;20086;-81
2021/06/08 00:06:04;;;;;;;15.27;10.45;;;16.30;99.90;;;;;;5056083;28;20040;-82
2021/06/08 00:08:30;;;;;;;13.13;9.50;;;16.30;99.90;;;;;;5072159;28;20609;-81
2021/06/08 00:10:56;;;;;;;15.55;9.85;;;16.30;99.90;;;;;;5071911;28;20040;-81
2021/06/08 00:13:22;;;;;;;12.82;9.05;;;16.20;99.90;;;;;;5054584;28;20072;-82
2021/06/08 00:15:47;;;;;;;15.93;9.52;;;16.20;99.90;;;;;;5054968;28;20108;-81
2021/06/08 00:18:13;;;;;;;13.68;9.32;;;16.20;99.90;;;;;;5055683;28;20047;-82
2021/06/08 00:20:40;;;;;;;14.55;9.98;;;16.20;99.90;;;;;;5054552;28;20098;-81
2021/06/08 00:23:06;;;;;;;14.30;9.50;;;16.20;99.90;;;;;;5072669;28;20044;-82
2021/06/08 00:25:31;;;;;;;13.95;9.35;;;16.30;99.90;;;;;;5065657;28;20040;-82
2021/06/08 00:27:57;;;;;;;13.15;9.13;;;16.30;99.90;;;;;;5056205;28;20059;-81
2021/06/08 00:30:24;;;;;;;15.23;8.93;;;16.20;99.90;;;;;;5055657;28;20055;-81
2021/06/08 00:32:50;;;;;;;15.60;9.48;;;16.20;99.90;;;;;;5056197;28;20127;-82
2021/06/08 00:35:16;;;;;;;12.63;8.63;;;16.20;99.90;;;;;;5073798;28;20128;-81
2021/06/08 00:37:42;;;;;;;13.95;8.93;;;16.30;99.90;;;;;;5055506;28;20040;-81
2021/06/08 00:40:10;;;;;;;16.20;10.18;;;16.30;99.90;;;;;;5055537;28;20048;-82
2021/06/08 00:42:36;;;;;;;13.68;8.85;;;16.30;99.90;;;;;;5055794;28;20086;-81
2021/06/08 00:45:04;;;;;;;15.38;8.43;;;16.30;99.90;;;;;;5073406;28;20397;-81
2021/06/08 00:47:30;;;;;;;13.05;8.57;;;16.20;99.90;;;;;;5072623;28;20491;-82
2021/06/08 00:49:56;;;;;;;14.93;9.30;;;16.20;99.90;;;;;;5072108;28;20036;-82
2021/06/08 00:52:22;;;;;;;12.90;8.77;;;16.20;99.90;;;;;;5059466;28;20041;-81
2021/06/08 00:54:49;;;;;;;13.82;9.25;;;16.20;99.90;;;;;;5054998;28;20051;-81
2021/06/08 00:57:14;;;;;;;13.25;9.30;;;16.20;99.90;;;;;;5073103;28;20040;-81
2021/06/08 00:59:40;;;;;;;12.77;8.75;;;16.20;99.90;;;;;;5054985;28;20062;-82
2021/06/08 01:02:06;;;;;;;15.60;9.88;;;16.20;99.90;;;;;;5054450;28;20045;-82
2021/06/08 01:04:31;;;;;;;13.13;9.48;;;16.20;99.90;;;;;;5054612;28;20041;-81
2021/06/08 01:06:57;;;;;;;13.02;9.00;;;16.20;99.90;;;;;;5072309;28;20044;-81
2021/06/08 01:09:23;;;;;;;13.85;9.23;;;16.20;99.90;;;;;;5054679;28;20040;-82
2021/06/08 01:11:50;;;;;;;11.55;8.50;;;16.30;99.90;;;;;;5072900;28;20036;-82
2021/06/08 01:14:16;;;;;;;13.95;9.70;;;16.20;99.90;;;;;;5054821;28;20129;-82
2021/06/08 01:16:41;;;;;;;11.77;8.43;;;16.20;99.90;;;;;;5054548;28;20128;-82
2021/06/08 01:19:07;;;;;;;15.35;10.55;;;16.20;99.90;;;;;;5073099;28;20408;-82
2021/06/08 01:21:35;;;;;;;15.95;10.10;;;16.10;99.90;;;;;;5057912;28;20487;-81
2021/06/08 01:24:02;;;;;;;15.15;9.95;;;16.00;99.90;;;;;;5044541;28;20041;-81
2021/06/08 01:26:28;;;;;;;14.82;10.43;;;16.00;99.90;;;;;;5055949;28;20033;-81
2021/06/08 01:28:57;;;;;;;14.57;9.48;;;15.80;99.90;;;;;;5055622;28;20076;-81
2021/06/08 01:31:26;;;;;;;14.52;9.95;;;15.90;99.90;;;;;;5056519;28;20041;-81
2021/06/08 01:33:51;;;;;;;18.00;10.15;;;15.90;99.90;;;;;;5055434;28;20496;-81
2021/06/08 01:36:20;;;;;;;14.35;10.73;;;15.90;99.90;;;;;;5056801;28;20048;-81
2021/06/08 01:38:51;;;;;;;16.08;11.02;;;15.70;99.90;;;;;;5055611;28;20492;-81
2021/06/08 01:41:18;;;;;;;15.82;10.25;;;15.70;99.90;;;;;;5055523;28;20107;-81
2021/06/08 01:43:45;;;;;;;18.70;10.93;;;15.70;99.90;;;;;;5056590;28;20489;-82
2021/06/08 01:46:11;;;;;;;14.43;10.85;;;15.70;99.90;;;;;;5056553;28;20416;-82
2021/06/08 01:48:37;;;;;;;17.65;9.77;;;15.70;99.90;;;;;;5055143;28;20041;-82
2021/06/08 01:51:10;;;;;;;16.88;10.93;;;15.70;99.90;;;;;;5055084;28;20049;-81
2021/06/08 01:53:42;;;;;;;12.75;8.50;;;15.80;99.90;;;;;;5058329;28;20037;-81
2021/06/08 01:56:14;;;;;;;13.90;8.65;;;15.90;99.90;;;;;;5076066;28;20045;-81
2021/06/08 01:58:44;;;;;;;11.32;7.65;;;16.00;99.90;;;;;;5058396;28;20407;-81
2021/06/08 02:01:15;;;;;;;15.70;9.40;;;16.00;99.90;;;;;;5075298;28;20036;-81
2021/06/08 02:03:51;;;;;;;15.10;11.13;;;16.10;99.90;;;;;;5057625;28;20377;-81
2021/06/08 02:06:28;;;;;;;14.93;10.18;;;16.00;99.90;;;;;;5076247;28;20045;-82
2021/06/08 02:09:02;;;;;;;14.07;8.93;;;16.10;99.90;;;;;;5057573;28;20036;-81
2021/06/08 02:11:41;;;;;;;13.23;8.52;;;16.00;99.90;;;;;;5057973;28;20068;-81
2021/06/08 02:14:12;;;;;;;11.60;8.32;;;16.10;99.90;;;;;;5076046;28;20130;-82
2021/06/08 02:16:44;;;;;;;11.52;9.02;;;16.10;99.90;;;;;;5056958;28;20408;-80
2021/06/08 02:19:11;;;;;;;11.98;8.60;;;16.10;99.90;;;;;;5058066;28;20032;-81
2021/06/08 02:21:41;;;;;;;16.17;10.25;;;16.10;99.90;;;;;;5056911;28;20036;-81
2021/06/08 02:24:09;;;;;;;11.73;8.43;;;16.10;99.90;;;;;;5075547;28;20431;-81
2021/06/08 02:26:40;;;;;;;16.23;10.82;;;16.10;99.90;;;;;;5058073;28;20040;-81
2021/06/08 02:29:08;;;;;;;17.38;11.38;;;16.00;99.90;;;;;;5057619;28;20040;-81
2021/06/08 02:31:35;;;;;;;16.17;10.77;;;16.00;99.90;;;;;;5074685;28;20526;-81
2021/06/08 02:34:01;;;;;;;16.55;11.60;;;15.90;99.90;;;;;;5052324;28;20048;-81
2021/06/08 02:36:28;;;;;;;17.38;10.95;;;16.00;99.90;;;;;;5053648;28;20079;-81
2021/06/08 02:38:54;;;;;;;19.52;11.32;;;16.00;99.90;;;;;;5071680;28;20118;-81
2021/06/08 02:41:22;;;;;;;16.30;10.75;;;16.10;99.90;;;;;;5075640;28;20062;-81
2021/06/08 02:43:51;;;;;;;17.70;11.10;;;16.10;99.90;;;;;;5075874;28;20396;-81
2021/06/08 02:46:18;;;;;;;16.38;10.18;;;16.00;99.90;;;;;;5057531;28;20515;-81
2021/06/08 02:48:45;;;;;;;13.52;10.38;;;16.00;99.90;;;;;;5057455;28;20132;-81
2021/06/08 02:51:12;;;;;;;15.68;10.50;;;15.90;99.90;;;;;;5057005;28;20044;-81
2021/06/08 02:53:39;;;;;;;15.90;10.45;;;15.70;99.90;;;;;;5075285;28;20036;-81
2021/06/08 02:56:06;;;;;;;15.75;10.10;;;15.70;99.90;;;;;;5057401;28;20063;-81
2021/06/08 02:58:33;;;;;;;14.50;10.48;;;15.50;99.90;;;;;;5057111;28;20037;-81
2021/06/08 03:01:00;;;;;;;14.88;10.70;;;15.40;99.90;;;;;;5074946;28;20044;-81
2021/06/08 03:03:32;;;;;;;14.32;9.77;;;15.50;99.90;;;;;;5075323;28;20044;-82
2021/06/08 03:06:04;;;;;;;14.57;9.55;;;15.60;99.90;;;;;;5073799;28;20093;-82
2021/06/08 03:08:34;;;;;;;15.88;10.60;;;15.70;99.90;;;;;;5075160;28;20037;-81
2021/06/08 03:11:02;;;;;;;;;;;15.70;99.90;;;;;;5075688;28;20038;-81
2021/06/08 03:13:28;;;;;;;16.75;10.20;;;15.50;99.90;;;;;;5074851;28;19920;-81
2021/06/08 03:15:58;;;;;;;15.50;10.48;;;15.40;99.90;;;;;;5056724;28;20051;-81
2021/06/08 03:18:27;;;;;;;17.55;10.65;;;15.30;99.90;;;;;;5056959;28;20416;-81
2021/06/08 03:20:56;;;;;;;17.83;11.23;;;15.30;99.90;;;;;;5074975;28;20045;-81
2021/06/08 03:23:25;;;;;;;16.67;10.60;;;15.30;99.90;;;;;;5074762;28;20036;-82
2021/06/08 03:25:52;;;;;;;17.23;10.05;;;15.40;99.90;;;;;;5049710;28;20496;-81
2021/06/08 03:28:20;;;;;;;17.88;9.93;;;15.40;99.90;;;;;;5063383;28;20043;-82
2021/06/08 03:30:46;;;;;;;17.92;10.00;;;15.40;99.90;;;;;;5055113;28;20412;-82
2021/06/08 03:33:13;;;;;;;14.25;10.18;;;15.40;99.90;;;;;;5055420;28;20044;-82
2021/06/08 03:35:40;;;;;;;16.58;10.00;;;15.40;99.90;;;;;;5053206;28;20067;-82
2021/06/08 03:38:07;;;;;;;15.65;10.80;;;15.30;99.90;;;;;;5054281;28;20041;-82
2021/06/08 03:40:33;;;;;;;14.65;10.77;;;15.20;99.90;;;;;;5053440;28;20400;-81
2021/06/08 03:42:59;;;;;;;15.05;9.93;;;15.20;99.90;;;;;;5053160;28;20465;-81
2021/06/08 03:45:25;;;;;;;14.00;9.95;;;15.30;99.90;;;;;;5054295;28;20116;-81
2021/06/08 03:47:53;;;;;;;17.83;10.55;;;15.20;99.90;;;;;;5054192;28;20477;-81
2021/06/08 03:50:19;;;;;;;16.42;10.05;;;15.20;99.90;;;;;;5054228;28;20099;-81
2021/06/08 03:52:55;;;;;;;18.77;11.00;;;15.20;99.90;;;;;;5052813;28;20041;-81
2021/06/08 03:55:24;;;;;;;17.98;10.25;;;15.30;99.90;;;;;;5053842;28;20033;-81
2021/06/08 03:57:53;;;;;;;17.00;10.77;;;15.30;99.90;;;;;;5052638;28;20045;-81
2021/06/08 04:00:20;;;;;;;14.83;9.77;;;15.30;99.90;;;;;;5052931;28;20047;-81
2021/06/08 04:02:46;;;;;;;15.88;11.20;;;15.40;99.90;;;;;;5053984;28;20067;-81
2021/06/08 04:05:14;;;;;;;17.58;10.80;;;15.30;99.90;;;;;;5052721;28;20047;-81
2021/06/08 04:07:40;;;;;;;22.10;12.45;;;15.20;99.90;;;;;;5054082;28;20493;-82
2021/06/08 04:10:09;;;;;;;18.77;12.73;;;15.20;99.90;;;;;;5052354;28;20045;-81
2021/06/08 04:12:35;;;;;;;17.25;12.48;;;15.20;99.90;;;;;;5053744;28;20045;-82
2021/06/08 04:15:03;;;;;;;18.88;13.02;;;15.10;99.90;;;;;;5053896;28;20111;-83
2021/06/08 04:17:31;;;;;;;20.65;12.93;;;15.20;99.90;;;;;;5052364;28;20037;-82
2021/06/08 04:19:57;;;;;;;19.55;12.02;;;15.20;99.90;;;;;;5053237;28;20044;-83
2021/06/08 04:22:27;;;;;;;22.77;14.02;;;15.20;99.90;;;;;;5053765;28;20080;-83
2021/06/08 04:24:53;;;;;;;21.13;13.88;;;15.20;99.90;;;;;;5054684;28;20037;-81
2021/06/08 04:27:23;;;;;;;25.25;14.45;;;15.20;99.90;;;;;;5051903;28;20064;-81
2021/06/08 04:29:49;;;;;;;21.67;14.20;;;15.20;99.90;;;;;;5052422;28;20048;-82
2021/06/08 04:32:15;;;;;;;21.85;15.05;;;15.30;99.90;;;;;;5053286;28;20086;-81
2021/06/08 04:34:45;;;;;;;20.48;14.57;;;15.30;99.90;;;;;;5052632;28;20068;-81
2021/06/08 04:37:11;;;;;;;22.35;14.55;;;15.30;99.90;;;;;;5053253;28;20064;-81
2021/06/08 04:39:38;;;;;;;22.45;14.55;;;15.40;99.90;;;;;;5053049;28;20073;-81
2021/06/08 04:42:04;;;;;;;21.63;15.20;;;15.60;99.90;;;;;;5035899;28;20033;-82
2021/06/08 04:44:31;;;;;;;25.83;15.57;;;15.60;99.90;;;;;;5055137;28;20045;-81
2021/06/08 04:46:57;;;;;;;21.05;14.98;;;15.50;99.90;;;;;;5052102;28;20045;-81
2021/06/08 04:49:23;;;;;;;22.52;15.55;;;15.60;99.90;;;;;;5053403;28;20099;-82
2021/06/08 04:51:49;;;;;;;22.83;15.27;;;15.70;99.90;;;;;;5052347;28;20051;-82
2021/06/08 04:54:21;;;;;;;22.85;14.77;;;15.70;99.90;;;;;;5053655;28;20047;-81
2021/06/08 04:56:47;;;;;;;21.27;15.38;;;15.70;99.90;;;;;;5039738;28;20052;-82
2021/06/08 04:59:16;;;;;;;23.05;15.38;;;15.70;99.90;;;;;;5058826;28;20044;-81
2021/06/08 05:01:44;;;;;;;22.30;15.40;;;15.60;99.90;;;;;;5057593;28;20048;-82
2021/06/08 05:04:13;;;;;;;22.23;15.50;;;15.70;99.90;;;;;;5056306;28;20045;-81
2021/06/08 05:06:43;;;;;;;22.77;16.08;;;15.60;99.90;;;;;;5056903;28;20041;-82
2021/06/08 05:09:12;;;;;;;26.73;17.95;;;15.50;99.90;;;;;;5057366;28;20047;-81
2021/06/08 05:11:41;;;;;;;23.02;16.60;;;15.30;99.90;;;;;;5057401;28;20420;-81
2021/06/08 05:14:08;;;;;;;27.33;17.67;;;15.30;99.90;;;;;;5055975;28;20052;-82
2021/06/08 05:16:38;;;;;;;26.40;16.85;;;15.40;99.90;;;;;;5056959;28;20052;-82
2021/06/08 05:19:07;;;;;;;24.88;17.15;;;15.50;99.90;;;;;;5055747;28;20542;-81
2021/06/08 05:21:35;;;;;;;25.58;16.88;;;15.50;99.90;;;;;;5055987;28;20045;-81
2021/06/08 05:24:03;;;;;;;25.85;17.77;;;15.60;99.90;;;;;;5055698;28;20068;-81
2021/06/08 05:26:29;;;;;;;25.40;17.58;;;15.60;99.90;;;;;;5056372;28;20032;-81
2021/06/08 05:28:56;;;;;;;26.27;17.50;;;15.70;99.90;;;;;;5058288;28;20040;-80
2021/06/08 05:31:21;;;;;;;28.33;17.60;;;15.70;99.90;;;;;;5059046;28;20051;-81
2021/06/08 05:33:48;;;;;;;28.67;18.70;;;15.80;99.90;;;;;;5066555;28;20044;-81
2021/06/08 05:36:15;;;;;;;28.30;17.83;;;15.80;99.90;;;;;;5052861;28;20067;-81
2021/06/08 05:38:46;;;;;;;30.20;20.10;;;15.90;99.90;;;;;;5055488;28;20048;-81
2021/06/08 05:41:14;;;;;;;33.45;21.38;;;15.90;99.90;;;;;;5055508;28;20046;-82
2021/06/08 05:43:41;;;;;;;35.80;21.90;;;15.70;99.90;;;;;;5056953;28;20511;-81
2021/06/08 05:46:08;;;;;;;38.65;21.33;;;15.50;99.90;;;;;;5056808;28;20033;-81
2021/06/08 05:48:35;;;;;;;33.05;21.20;;;15.40;99.90;;;;;;5055204;28;20094;-81
2021/06/08 05:51:03;;;;;;;35.20;21.25;;;15.60;99.90;;;;;;5056498;28;20037;-81
2021/06/08 05:53:31;;;;;;;33.75;21.42;;;15.60;99.90;;;;;;5055620;28;20036;-81
2021/06/08 05:55:57;;;;;;;38.38;22.70;;;15.60;99.90;;;;;;5054884;28;20087;-81
2021/06/08 05:58:24;;;;;;;35.25;22.08;;;15.60;99.90;;;;;;5055206;28;20069;-81
2021/06/08 06:00:50;;;;;;;37.00;23.10;;;15.60;99.90;;;;;;5057647;28;20155;-82
2021/06/08 06:03:17;;;;;;;42.70;23.40;;;15.60;99.90;;;;;;5056871;28;20041;-82
2021/06/08 06:05:43;;;;;;;35.65;22.55;;;15.60;99.90;;;;;;5056411;28;20072;-84
2021/06/08 06:08:09;;;;;;;37.13;22.75;;;15.70;99.90;;;;;;5055031;28;20041;-82
2021/06/08 06:10:38;;;;;;;40.25;23.45;;;16.90;99.90;;;;;;5055389;28;20040;-81
2021/06/08 06:13:05;;;;;;;42.28;24.60;;;15.70;99.90;;;;;;5054895;28;20132;-81
2021/06/08 06:15:32;;;;;;;41.65;24.08;;;15.70;99.90;;;;;;5055901;28;20041;-81
2021/06/08 06:17:58;;;;;;;41.25;24.67;;;15.70;99.90;;;;;;5054495;28;20036;-81
2021/06/08 06:20:24;;;;;;;42.63;25.85;;;15.80;99.90;;;;;;5056839;28;20053;-81
2021/06/08 06:22:50;;;;;;;44.90;26.77;;;15.80;99.90;;;;;;5054758;28;20041;-82
2021/06/08 06:25:17;;;;;;;43.08;25.55;;;15.80;99.90;;;;;;5054938;28;20404;-82
2021/06/08 06:27:45;;;;;;;47.08;26.65;;;15.90;99.90;;;;;;5059674;28;20041;-82
2021/06/08 06:30:13;;;;;;;48.08;26.73;;;16.00;99.90;;;;;;5058163;28;20055;-81
2021/06/08 06:32:39;;;;;;;51.88;26.45;;;16.00;99.90;;;;;;5039032;28;20037;-80
2021/06/08 06:35:07;;;;;;;51.30;27.77;;;16.10;99.90;;;;;;5054342;28;20098;-82
2021/06/08 06:37:33;;;;;;;48.20;27.52;;;16.10;99.90;;;;;;5055728;28;20076;-81
2021/06/08 06:40:00;;;;;;;47.50;27.25;;;16.10;99.90;;;;;;5054142;28;20492;-81
2021/06/08 06:42:30;;;;;;;49.95;29.20;;;16.20;99.90;;;;;;5054282;28;20404;-82
2021/06/08 06:44:59;;;;;;;48.17;28.35;;;16.00;99.90;;;;;;5054765;28;20029;-81
2021/06/08 06:47:25;;;;;;;47.13;27.27;;;15.80;99.90;;;;;;5054405;28;20045;-82
2021/06/08 06:49:50;;;;;;;52.15;29.20;;;15.80;99.90;;;;;;5054059;28;20037;-81
2021/06/08 06:52:17;;;;;;;50.25;28.48;;;15.90;99.90;;;;;;5054118;28;20071;-81
2021/06/08 06:54:44;;;;;;;48.03;28.33;;;15.90;99.90;;;;;;5055277;28;20151;-81
2021/06/08 06:57:10;;;;;;;54.58;28.50;;;16.10;99.90;;;;;;5053542;28;20037;-81
2021/06/08 06:59:36;;;;;;;56.05;30.00;;;16.10;99.90;;;;;;5055192;28;20120;-81
2021/06/08 07:02:05;;;;;;;52.08;29.95;;;15.80;99.90;;;;;;5053947;28;20041;-81
2021/06/08 07:04:31;;;;;;;49.00;27.80;;;16.00;99.90;;;;;;5055227;28;20087;-81
2021/06/08 07:06:58;;;;;;;55.90;30.45;;;15.90;99.90;;;;;;5053110;28;20044;-81
2021/06/08 07:09:25;;;;;;;56.40;30.92;;;15.80;99.90;;;;;;5050537;28;20041;-82
2021/06/08 07:11:52;;;;;;;50.80;29.73;;;15.80;99.90;;;;;;5050335;28;20451;-82
2021/06/08 07:14:18;;;;;;;53.00;29.98;;;16.00;99.90;;;;;;5050287;28;20041;-82
2021/06/08 07:16:44;;;;;;;54.67;30.02;;;16.10;99.90;;;;;;5050111;28;20127;-82
2021/06/08 07:19:13;;;;;;;53.10;29.13;;;16.20;99.90;;;;;;5049349;28;20360;-81
2021/06/08 07:21:40;;;;;;;52.40;29.83;;;16.30;99.90;;;;;;5050092;28;20052;-82
2021/06/08 07:24:06;;;;;;;54.50;28.85;;;16.40;99.90;;;;;;5051142;28;20771;-81
2021/06/08 07:26:33;;;;;;;47.28;28.67;;;16.60;99.90;;;;;;5049695;28;20134;-82
2021/06/08 07:28:58;;;;;;;48.83;29.05;;;16.70;99.90;;;;;;5051125;28;20052;-81
2021/06/08 07:31:35;;;;;;;51.38;28.40;;;16.80;99.90;;;;;;5049696;28;20044;-82
2021/06/08 07:34:06;;;;;;;53.67;30.13;;;16.50;99.90;;;;;;5049919;28;20313;-82
2021/06/08 07:36:40;;;;;;;55.25;31.48;;;16.60;99.90;;;;;;5049737;28;20040;-81
2021/06/08 07:39:11;;;;;;;51.88;29.17;;;16.70;99.90;;;;;;5049792;28;20041;-82
2021/06/08 07:41:41;;;;;;;53.60;28.98;;;16.70;99.90;;;;;;5050910;28;20501;-82
2021/06/08 07:44:09;;;;;;;;;;;16.80;99.90;;;;;;5050889;28;20124;-81
2021/06/08 07:46:38;;;;;;;53.38;29.20;;;16.50;99.90;;;;;;5049442;28;19921;-82
2021/06/08 07:49:06;;;;;;;56.03;31.35;;;16.20;99.90;;;;;;5049491;28;20582;-81
2021/06/08 07:51:33;;;;;;;50.22;29.77;;;16.20;99.90;;;;;;5051057;28;20641;-82
2021/06/08 07:54:01;;;;;;;47.90;28.90;;;16.30;99.90;;;;;;5050486;28;20115;-81
2021/06/08 07:56:27;;;;;;;54.85;30.88;;;16.60;99.90;;;;;;5048716;28;20079;-81
2021/06/08 07:58:53;;;;;;;51.63;30.00;;;16.80;99.90;;;;;;5050476;28;20064;-81
2021/06/08 08:01:20;;;;;;;48.42;29.45;;;16.90;99.90;;;;;;5049220;28;20076;-82
2021/06/08 08:03:47;;;;;;;57.53;31.83;;;17.10;99.90;;;;;;5050298;28;20065;-82
2021/06/08 08:06:15;;;;;;;55.42;30.48;;;17.20;99.90;;;;;;5070664;28;20043;-81
2021/06/08 08:08:41;;;;;;;52.67;29.73;;;17.30;99.90;;;;;;5051799;28;20415;-82
2021/06/08 08:11:11;;;;;;;48.35;28.60;;;17.30;99.90;;;;;;5048994;28;20039;-82
2021/06/08 08:13:40;;;;;;;45.15;28.42;;;17.50;99.90;;;;;;5048522;28;20432;-82
2021/06/08 08:16:07;;;;;;;48.70;29.15;;;17.20;99.90;;;;;;5050284;28;20037;-82
2021/06/08 08:18:33;;;;;;;45.45;28.45;;;17.10;99.90;;;;;;5032395;28;20049;-81
2021/06/08 08:20:59;;;;;;;54.20;30.88;;;17.20;99.90;;;;;;5049798;28;20116;-82
2021/06/08 08:23:27;;;;;;;52.25;31.63;;;17.20;99.90;;;;;;5050146;28;20047;-81
2021/06/08 08:25:54;;;;;;;60.40;37.83;;;16.90;99.90;;;;;;5050204;28;20032;-81
2021/06/08 08:28:22;;;;;;;51.60;30.10;;;17.00;99.90;;;;;;5032270;28;20044;-82
2021/06/08 08:30:48;;;;;;;48.38;29.27;;;16.90;99.90;;;;;;5049347;28;20053;-81
2021/06/08 08:33:14;;;;;;;47.85;28.38;;;17.10;99.90;;;;;;5049556;28;20094;-82
2021/06/08 08:35:40;;;;;;;53.47;29.27;;;17.30;99.90;;;;;;5032098;28;20049;-81
2021/06/08 08:38:06;;;;;;;51.33;29.77;;;17.40;99.90;;;;;;5048737;28;20086;-82
2021/06/08 08:40:32;;;;;;;54.25;30.55;;;17.10;99.90;;;;;;5048836;28;20045;-82
2021/06/08 08:43:01;;;;;;;48.05;28.48;;;17.00;99.90;;;;;;5044191;28;20131;-81
2021/06/08 08:45:29;;;;;;;46.40;27.85;;;17.20;99.90;;;;;;5048619;28;20381;-82
2021/06/08 08:47:55;;;;;;;52.17;29.48;;;17.30;99.90;;;;;;5049847;28;20056;-81
2021/06/08 08:50:22;;;;;;;49.63;29.10;;;17.40;99.90;;;;;;5031984;28;20037;-82
2021/06/08 08:52:55;;;;;;;46.55;27.52;;;17.50;99.90;;;;;;5050077;28;20045;-82
2021/06/08 08:55:23;;;;;;;50.95;28.70;;;17.60;99.90;;;;;;5032456;28;20120;-82
2021/06/08 08:57:50;;;;;;;48.00;28.65;;;17.50;99.90;;;;;;5033336;28;20523;-81
2021/06/08 09:00:17;;;;;;;49.50;27.95;;;17.50;99.90;;;;;;5051892;28;20049;-81
2021/06/08 09:02:45;;;;;;;46.08;28.20;;;17.60;99.90;;;;;;5033526;28;20041;-81
2021/06/08 09:05:11;;;;;;;51.53;27.73;;;17.50;99.90;;;;;;5032707;28;20044;-81
2021/06/08 09:07:37;;;;;;;51.45;27.80;;;17.30;99.90;;;;;;5031349;28;20060;-82
2021/06/08 09:10:03;;;;;;;45.22;27.40;;;17.40;99.90;;;;;;5031872;28;20051;-82
2021/06/08 09:12:29;;;;;;;48.20;28.65;;;17.50;99.90;;;;;;5032944;28;20519;-82
2021/06/08 09:14:55;;;;;;;54.50;29.95;;;17.50;99.90;;;;;;5049636;28;20045;-82
2021/06/08 09:17:20;;;;;;;46.80;27.77;;;17.70;99.90;;;;;;5049958;28;20095;-82
2021/06/08 09:19:47;;;;;;;49.83;27.85;;;17.40;99.90;;;;;;5031344;28;20041;-82
2021/06/08 09:22:14;;;;;;;51.17;29.30;;;17.20;99.90;;;;;;5031688;28;20443;-81
2021/06/08 09:24:43;;;;;;;47.65;28.35;;;17.20;99.90;;;;;;5055596;28;20035;-82
2021/06/08 09:27:10;;;;;;;48.20;28.05;;;17.40;99.90;;;;;;5069500;28;20040;-81
2021/06/08 09:29:38;;;;;;;49.58;28.92;;;17.50;99.90;;;;;;5051621;28;20051;-82
2021/06/08 09:32:15;;;;;;;50.28;27.88;;;17.40;99.90;;;;;;5051053;28;20121;-82
2021/06/08 09:34:44;;;;;;;51.97;28.63;;;17.30;99.90;;;;;;5051642;28;20041;-82
2021/06/08 09:37:11;;;;;;;54.10;28.90;;;17.40;99.90;;;;;;5051888;28;20038;-81
2021/06/08 09:39:46;;;;;;;47.80;27.75;;;17.80;99.90;;;;;;5051516;28;20049;-81
2021/06/08 09:42:22;;;;;;;53.55;27.75;;;18.00;99.90;;;;;;5054255;28;20048;-82
2021/06/08 09:44:47;;;;;;;45.70;27.13;;;18.40;99.90;;;;;;5072686;28;20048;-82
2021/06/08 09:47:25;;;;;;;47.50;26.83;;;18.70;99.90;;;;;;5054966;28;20123;-82
2021/06/08 09:49:51;;;;;;;49.83;27.33;;;19.00;99.90;;;;;;5055045;28;20048;-82
2021/06/08 09:52:19;;;;;;;41.95;25.15;;;19.10;99.90;;;;;;5055122;28;20044;-82
2021/06/08 09:54:46;;;;;;;45.33;26.27;;;19.20;99.90;;;;;;5054878;28;20052;-81
2021/06/08 09:57:23;;;;;;;45.80;25.83;;;19.20;99.90;;;;;;5054741;28;20431;-82
2021/06/08 09:59:52;;;;;;;41.03;24.02;;;19.40;99.90;;;;;;5073156;28;20044;-82
2021/06/08 10:02:34;;;;;;;42.50;25.38;;;19.20;99.90;;;;;;5072986;28;20037;-82
2021/06/08 10:05:21;;;;;;;42.83;24.80;;;19.10;99.90;;;;;;5055091;28;20040;-81
2021/06/08 10:07:50;;;;;;;41.08;24.33;;;20.80;99.90;;;;;;5054322;28;20084;-82
2021/06/08 10:10:17;;;;;;;44.58;24.38;;;19.60;99.90;;;;;;5073033;28;20457;-81
2021/06/08 10:13:08;;;;;;;45.55;24.52;;;19.60;99.90;;;;;;5054704;28;20488;-82
2021/06/08 10:15:36;;;;;;;42.20;24.85;;;19.60;99.90;;;;;;5044864;28;20048;-82
2021/06/08 10:18:05;;;;;;;43.42;24.85;;;19.70;99.90;;;;;;5072597;28;20056;-82
2021/06/08 10:20:33;;;;;;;42.63;24.55;;;19.60;99.90;;;;;;5054262;28;20072;-82
2021/06/08 10:23:16;;;;;;;39.20;23.23;;;19.90;99.90;;;;;;5072749;28;20121;-82
2021/06/08 10:25:41;;;;;;;35.92;23.13;;;20.00;99.90;;;;;;5054621;28;20816;-82
2021/06/08 10:28:10;;;;;;;39.40;24.02;;;20.00;99.90;;;;;;5054348;28;20097;-82
2021/06/08 10:30:36;;;;;;;39.47;23.95;;;20.20;99.90;;;;;;5072381;28;20040;-82
2021/06/08 10:33:02;;;;;;;37.22;24.00;;;20.20;99.90;;;;;;5053883;28;20090;-82
2021/06/08 10:35:28;;;;;;;39.70;24.40;;;20.20;99.90;;;;;;5055057;28;20418;-83
2021/06/08 10:37:54;;;;;;;37.65;23.67;;;19.90;99.90;;;;;;5055096;28;20479;-82
2021/06/08 10:40:21;;;;;;;39.25;24.70;;;19.80;99.90;;;;;;5073823;28;20633;-83
2021/06/08 10:42:47;;;;;;;37.88;23.52;;;19.70;99.90;;;;;;5073773;28;20109;-81
2021/06/08 10:45:13;;;;;;;39.20;23.60;;;19.80;99.90;;;;;;5073433;28;20064;-81
2021/06/08 10:50:23;;;;;;;41.72;24.83;;;19.70;99.90;;;;;;5073254;28;20052;-82
2021/06/08 10:52:49;;;;;;;42.92;25.38;;;19.30;99.90;;;;;;5071258;28;20051;-82
2021/06/08 10:55:15;;;;;;;39.25;23.92;;;19.20;99.90;;;;;;5053389;28;20037;-82
2021/06/08 10:57:46;;;;;;;44.25;23.90;;;19.50;99.90;;;;;;5072997;28;20127;-81
2021/06/08 11:00:35;;;;;;;36.90;23.25;;;19.90;99.90;;;;;;5053693;28;20041;-82
2021/06/08 11:03:01;;;;;;;39.17;23.80;;;20.10;99.90;;;;;;5070922;28;20097;-82
2021/06/08 11:05:54;;;;;;;42.58;24.58;;;21.70;99.90;;;;;;5050262;28;20036;-82
2021/06/08 11:08:41;;;;;;;38.92;24.20;;;19.70;99.90;;;;;;5042867;28;20067;-82
2021/06/08 11:11:08;;;;;;;37.92;24.08;;;19.60;99.90;;;;;;5049153;28;20508;-82
2021/06/08 11:13:40;;;;;;;35.60;24.48;;;19.80;99.90;;;;;;5051800;28;20128;-82
2021/06/08 11:16:34;;;;;;;40.72;23.88;;;19.90;99.90;;;;;;5051376;28;20404;-82
2021/06/08 11:19:00;;;;;;;40.30;24.15;;;20.00;99.90;;;;;;5027514;28;20052;-83
2021/06/08 11:21:28;;;;;;;43.03;24.20;;;19.90;99.90;;;;;;5033630;28;20508;-82
2021/06/08 11:23:55;;;;;;;39.03;23.83;;;19.70;99.90;;;;;;5053643;28;20044;-82
2021/06/08 11:26:48;;;;;;;43.40;24.05;;;20.00;99.90;;;;;;5047466;28;20033;-82
2021/06/08 11:29:45;;;;;;;41.38;25.90;;;20.30;99.90;;;;;;5075272;28;20080;-82
2021/06/08 11:32:42;;;;;;;37.88;24.92;;;20.10;99.90;;;;;;5077966;28;20051;-83
2021/06/08 11:35:10;;;;;;;43.90;25.02;;;20.20;99.90;;;;;;5077888;28;20167;-83
2021/06/08 11:37:47;;;;;;;43.40;26.30;;;19.70;99.90;;;;;;5074931;28;20494;-82
2021/06/08 11:40:52;;;;;;;40.88;25.10;;;19.70;99.90;;;;;;5076429;28;20075;-82
2021/06/08 11:43:46;;;;;;;42.90;25.50;;;19.70;99.90;;;;;;5077864;28;20036;-82
2021/06/08 11:46:13;;;;;;;37.53;23.70;;;20.20;99.90;;;;;;5075790;28;20098;-83
2021/06/08 11:48:40;;;;;;;36.25;23.90;;;20.50;99.90;;;;;;5075285;28;20123;-84
2021/06/08 11:51:35;;;;;;;41.50;25.00;;;20.60;99.90;;;;;;5073911;28;20040;-83
2021/06/08 11:54:03;;;;;;;40.80;25.42;;;20.10;99.90;;;;;;5057678;28;20040;-82
2021/06/08 11:56:42;;;;;;;40.17;25.30;;;20.40;99.90;;;;;;5075605;28;20075;-82
2021/06/08 11:59:09;;;;;;;39.97;24.23;;;20.60;99.90;;;;;;5075107;28;20123;-82
2021/06/08 12:01:38;;;;;;;41.22;26.25;;;20.80;99.90;;;;;;5057257;28;20048;-82
2021/06/08 12:04:04;;;;;;;41.42;25.25;;;20.60;99.90;;;;;;5074603;28;20149;-82
2021/06/08 12:07:05;;;;;;;42.30;25.48;;;20.40;99.90;;;;;;5056857;28;20040;-82
2021/06/08 12:09:33;;;;;;;40.08;24.75;;;20.50;99.90;;;;;;5073247;28;20554;-84
2021/06/08 12:12:04;;;;;;;35.78;24.27;;;20.90;99.90;;;;;;5074907;28;20128;-84
2021/06/08 12:14:31;;;;;;;39.78;24.90;;;20.90;99.90;;;;;;5075566;28;20032;-83
2021/06/08 12:16:59;;;;;;;38.58;23.90;;;20.80;99.90;;;;;;5075094;28;20037;-81
2021/06/08 12:19:27;;;;;;;39.08;23.90;;;21.20;99.90;;;;;;5072992;28;20464;-82
2021/06/08 12:21:54;;;;;;;40.65;27.10;;;21.70;99.90;;;;;;5072853;28;20520;-81
2021/06/08 12:24:20;;;;;;;41.63;25.90;;;21.20;99.90;;;;;;5074189;28;20488;-81
2021/06/08 12:26:58;;;;;;;40.85;25.67;;;21.20;99.90;;;;;;5073670;28;20070;-82
2021/06/08 12:29:24;;;;;;;43.13;27.63;;;21.10;99.90;;;;;;5073828;28;20067;-82
2021/06/08 12:31:54;;;;;;;41.38;26.38;;;20.60;99.90;;;;;;5073038;28;20510;-82
2021/06/08 12:34:20;;;;;;;37.60;25.17;;;20.90;99.90;;;;;;5074542;28;20044;-83
2021/06/08 12:36:49;;;;;;;35.30;24.10;;;21.10;99.90;;;;;;5074620;28;20040;-81
2021/06/08 12:39:16;;;;;;;37.45;24.65;;;21.20;99.90;;;;;;5072825;28;20094;-82